createdAt,value
2023-01-31T00:02:29.168Z,100782.25
2023-01-31T00:04:57.599Z,100772.72
2023-01-31T00:07:35.039Z,100778.63
2023-01-31T00:10:11.710Z,100773.28
2023-01-31T00:12:43.222Z,100773.28
2023-01-31T00:15:17.436Z,100768.31
2023-01-31T00:17:47.123Z,100774.63
2023-01-31T00:20:17.171Z,100764.50
2023-01-31T00:22:46.635Z,100756.69
2023-01-31T00:25:16.952Z,100760.25
2023-01-31T00:27:46.007Z,100766.03
2023-01-31T00:30:16.880Z,100763.84
2023-01-31T00:32:49.971Z,100766.75
2023-01-31T00:35:20.164Z,100767.16
2023-01-31T00:37:51.552Z,100765.94
2023-01-31T00:40:24.208Z,100761.47
2023-01-31T00:42:55.433Z,100753.91
2023-01-31T00:45:25.675Z,100743.91
2023-01-31T00:47:59.693Z,100753.63
2023-01-31T00:50:36.765Z,100748.56
2023-01-31T00:53:13.954Z,100751.94
2023-01-31T00:55:44.706Z,100755.16
2023-01-31T00:58:20.806Z,100756.31
2023-01-31T01:00:51.487Z,100751.88
2023-01-31T01:03:25.875Z,100746.59
2023-01-31T01:05:55.868Z,100742.31
2023-01-31T01:08:26.533Z,100744.75
2023-01-31T01:10:55.197Z,100748.03
2023-01-31T01:13:27.784Z,100734.94
2023-01-31T01:16:11.757Z,100729.22
2023-01-31T01:18:42.968Z,100734.34
2023-01-31T01:21:31.062Z,100733.06
2023-01-31T01:24:03.735Z,100729.72
2023-01-31T01:26:36.775Z,100723.34
2023-01-31T01:29:10.065Z,100728.38
2023-01-31T01:31:47.105Z,100725.50
2023-01-31T01:34:21.499Z,100729.97
2023-01-31T01:36:52.569Z,100727.00
2023-01-31T01:39:23.319Z,100712.34
2023-01-31T01:41:53.983Z,100708.25
2023-01-31T01:44:51.908Z,100706.97
2023-01-31T01:47:42.231Z,100711.41
2023-01-31T01:50:24.706Z,100715.09
2023-01-31T01:53:11.850Z,100713.41
2023-01-31T01:55:57.220Z,100702.22
2023-01-31T01:58:52.913Z,100710.34
2023-01-31T02:01:25.194Z,100704.44
2023-01-31T02:03:54.840Z,100696.63
2023-01-31T02:06:31.087Z,100697.25
2023-01-31T02:09:00.627Z,100701.03
2023-01-31T02:11:32.573Z,100695.13
2023-01-31T02:14:08.804Z,100701.06
2023-01-31T02:16:39.022Z,100705.50
2023-01-31T02:19:30.905Z,100703.59
2023-01-31T02:22:11.358Z,100701.06
2023-01-31T02:25:11.798Z,100700.53
2023-01-31T02:27:54.225Z,100702.97
2023-01-31T02:30:31.811Z,100707.81
2023-01-31T02:33:43.020Z,100703.81
2023-01-31T02:36:33.128Z,100700.72
2023-01-31T08:26:19.907Z,100765.25
2023-01-31T08:59:43.881Z,100754.91
2023-01-31T09:05:31.124Z,100746.03
2023-01-31T09:08:08.842Z,100743.25
2023-01-31T09:13:56.521Z,100751.94
2023-01-31T09:16:41.345Z,100747.84
2023-01-31T09:19:28.700Z,100754.81
2023-01-31T09:22:07.204Z,100751.44
2023-01-31T09:27:30.917Z,100757.69
2023-01-31T09:30:03.589Z,100755.91
2023-01-31T09:32:33.525Z,100744.59
2023-01-31T09:35:08.288Z,100738.78
2023-01-31T09:37:42.052Z,100748.25
2023-01-31T09:40:26.070Z,100745.88
2023-01-31T09:42:57.300Z,100745.41
2023-01-31T09:45:35.922Z,100758.06
2023-01-31T09:48:22.348Z,100749.16
2023-01-31T09:50:56.788Z,100752.16
2023-01-31T09:53:32.846Z,100747.88
2023-01-31T09:56:10.375Z,100745.75
2023-01-31T09:58:57.960Z,100753.09
2023-01-31T10:18:48.985Z,100726.25
2023-01-31T14:40:32.340Z,100720.63
2023-01-31T14:43:19.043Z,100723.28
2023-01-31T15:04:02.241Z,100728.69
2023-01-31T15:06:38.400Z,100725.31
2023-01-31T15:09:22.129Z,100730.50
2023-01-31T15:11:58.795Z,100728.81
2023-01-31T15:14:39.027Z,100734.34
2023-01-31T15:17:36.668Z,100739.28
2023-01-31T15:20:21.416Z,100726.88
2023-01-31T15:22:55.324Z,100736.53
2023-01-31T15:25:41.029Z,100740.72
2023-01-31T15:28:17.690Z,100737.59
2023-01-31T15:30:49.236Z,100745.75
2023-01-31T15:33:29.871Z,100746.94
2023-01-31T15:36:01.255Z,100741.75
2023-01-31T15:38:55.934Z,100739.84
2023-01-31T15:41:41.453Z,100739.59
2023-01-31T15:44:20.853Z,100738.50
2023-01-31T15:46:56.336Z,100740.19
2023-01-31T15:49:39.679Z,100743.34
2023-01-31T15:52:15.819Z,100747.66
2023-01-31T15:55:06.910Z,100739.69
2023-01-31T15:58:00.147Z,100743.69
2023-01-31T16:00:39.050Z,100743.28
2023-01-31T16:03:18.071Z,100735.22
2023-01-31T16:05:51.149Z,100736.78
2023-01-31T16:08:37.514Z,100736.44
2023-01-31T16:11:09.974Z,100728.88
2023-01-31T16:13:43.900Z,100734.88
2023-01-31T16:16:16.088Z,100732.97
2023-01-31T16:18:53.023Z,100731.75
2023-01-31T16:21:27.639Z,100740.31
2023-01-31T16:24:17.496Z,100734.69
2023-01-31T16:27:17.227Z,100739.13
2023-01-31T16:29:59.348Z,100754.06
2023-01-31T16:32:31.810Z,100752.03
2023-01-31T16:35:10.176Z,100750.31
2023-01-31T17:22:14.211Z,100732.69
2023-01-31T17:24:49.970Z,100734.28
2023-01-31T17:27:20.003Z,100734.41
2023-01-31T17:29:50.932Z,100734.28
2023-01-31T17:32:22.458Z,100739.69
2023-01-31T17:34:52.931Z,100736.06
2023-01-31T17:37:31.176Z,100739.47
2023-01-31T17:40:09.477Z,100730.16
2023-01-31T17:42:38.679Z,100731.00
2023-01-31T17:45:13.974Z,100736.81
2023-01-31T17:47:44.875Z,100742.56
2023-01-31T17:50:24.110Z,100741.38
2023-01-31T17:52:56.466Z,100734.91
2023-01-31T17:55:25.796Z,100746.66
2023-01-31T17:57:54.949Z,100740.06
2023-01-31T18:00:27.951Z,100748.25
2023-01-31T18:02:58.157Z,100741.41
2023-01-31T18:05:38.440Z,100740.81
2023-01-31T18:08:10.007Z,100737.16
2023-01-31T18:10:42.142Z,100735.13
2023-01-31T18:13:15.512Z,100739.88
2023-01-31T18:15:52.290Z,100738.50
2023-01-31T18:18:26.840Z,100739.34
2023-01-31T20:42:04.313Z,100716.38
2023-01-31T21:54:35.660Z,100707.25
2023-01-31T22:03:08.400Z,100706.63
2023-01-31T22:05:59.952Z,100708.94
2023-01-31T22:08:38.427Z,100708.31
2023-01-31T22:14:20.483Z,100711.00
2023-01-31T22:17:06.123Z,100712.47
